Статистика

Перформанси вкупни на сите времиња
Алеја на славните
Најдобра Елите шампионат сезона
Менаџери со најмногу титули во Елит

Најдобри менаџери (според најмногу трки)
Најдобри менаџери (според најмногу победи)
Најдобри менаџери (според најмногу пол-позиции)
Најдобри менаџери (според најмногу поени)
Најдобри менаџери (според најмногу најбрзи круга)
Најдобри менаџери (според најмногу подиуми)
Најдобри менаџери (според просечно поени по трка)

Најдобри менаџери (според најмногу квалификациони рекорди)
Најдобри менаџери (според најмногу рекорди на патеки)
Најдобрите менаџери (по најмногу квалификациски успеси на влажна патека)
Најдобрите менаџери (по најмногу рекорди и успеси на влажна патека)
Најдобри менаџери (по вкупно најдобрите квалификациски времиња на круговите на сите патеки)
Најдобри менаџери (по лично најдобрите времиња поставени во квалификации на сите патеки )
Статистика на тимови
Активност во играта статистика
Статистика за форумот
Нации статистика
Други статистики
Најдобри менаџери (според највисоко ниво на болид)
Најдобри менаџери (според најдобар персонал и објекти)
Најдобри менаџери (според приходи од спонзори)
Најбогати менаџери
Добавувачи на гуми - статистика
Статистика за времето

Менаџери со најмногу трошоци
Менаџери со најмногу кругови во водство
Менаџери со најмногу освоени позиции
Менаџери со најмногу несреќи на почетокот
Менаџери со најмногу испаѓања од трка
Пласман ако сезоната беше една голема трка
Менаџери со најмногу хет-трика
Менаџери со најмногу Гранд Челем
Победа од најниска позиција
Менаџери со најмногу победи во низа
Менаџери со најмногу подиуми во низа
Менаџери со најмногу завршувања во поени во низа

Најмногу менаџери од иста резиденција
Најпопуларни бои на болидите
Сите менаџери со слика
Сите менаџери со алтер его слика
Сите менаџери со дизајнирани кациги
Најпопуларни пријатели
Статистика на достигнувањата
Персонал статистика
ГПРОподдржувачи статистика

Најдобри менаџери (по лично најдобрите времиња поставени во квалификации на сите патеки )
Оваа статистика ја користи сумата на остварени лични најдобри и најбрзи кругови од сите трки на секој менаџер.
За да бидете вклучен во ранкингот мора да имате учествувано барем во една трка на сите постоечки патеки.
 
Страница [12 3 ... 49 50 51 » Брзо оди на страница:
# Нац Име на менаџер Група Вкупно време
HH:MM:SS.XXXs
Заостанување
HH:MM:SS.XXXs
1. Rimantas Sagatas4 Elite 1:20:02.821s + 0.000s
2. Roland Postle9 Master - 1 1:20:06.791s + 3.970s
3. Bert Huylebroeck1 Master - 3 1:20:15.216s + 12.395s
4. Rafal Celejewski Elite 1:20:22.557s + 19.736s
5. George Slater1 Elite 1:20:23.615s + 20.794s
6. Jasper Coosemans1 Elite 1:20:30.230s + 27.409s
7. Róbert László2 Master - 4 1:20:36.318s + 33.497s
8. Brad Marshall1 Master - 2 1:20:46.349s + 43.528s
9. Paweł Zaburski Elite 1:20:46.559s + 43.738s
10. Ioannis Dimitroglou4 Master - 5 1:20:48.554s + 45.733s
11. Pablo Fernandez1 Pro - 24 1:20:55.269s + 52.448s
12. Andrea Squizzato1 Master - 1 1:20:56.034s + 53.213s
13. Ania Piekarska Pro - 8 1:20:58.122s + 55.301s
14. Leandro Sereno7 Elite 1:21:04.550s + 0:01:01.729s
15. Lee Harding Elite 1:21:05.178s + 0:01:02.357s
16. Dominiek Van West Elite 1:21:07.265s + 0:01:04.444s
17. Mihail Morozov Elite 1:21:09.056s + 0:01:06.235s
18. Bruno Caseiro1 Elite 1:21:09.814s + 0:01:06.993s
19. Gyuri Székely Master - 5 1:21:10.099s + 0:01:07.278s
20. Toni Söyrinki Master - 1 1:21:11.364s + 0:01:08.543s
21. Kristijan Mihovic Elite 1:21:13.093s + 0:01:10.272s
22. Nevzat Kasapoglu Amateur - 14 1:21:15.844s + 0:01:13.023s
23. Gonzalo Alvarez Elite 1:21:17.525s + 0:01:14.704s
24. Atis Praudins Master - 1 1:21:18.512s + 0:01:15.691s
25. Łukasz Dudek1 Retired 1:21:21.249s + 0:01:18.428s
26. Antonio Gattulli Master - 3 1:21:22.341s + 0:01:19.520s
27. Vladimir Valis Elite 1:21:24.658s + 0:01:21.837s
28. Harsh Sheth Master - 2 1:21:24.673s + 0:01:21.852s
29. Kuba Szajbel Elite 1:21:25.714s + 0:01:22.893s
30. David Rolleston1 Amateur - 67 1:21:27.617s + 0:01:24.796s
31. Wouter Teuwen Elite 1:21:30.974s + 0:01:28.153s
32. Vsevolod Demydov2 Master - 4 1:21:34.798s + 0:01:31.977s
33. Miel Soeterbroek Amateur - 9 1:21:36.200s + 0:01:33.379s
34. Theodosis Vogiatzis Pro - 21 1:21:36.814s + 0:01:33.993s
35. Carlos Esparza Pro - 15 1:21:38.917s + 0:01:36.096s
36. Jean-marc Boissinot Elite 1:21:38.962s + 0:01:36.141s
37. Raimonds Urtāns Master - 1 1:21:39.145s + 0:01:36.324s
38. José Abi Jaudi Master - 4 1:21:41.124s + 0:01:38.303s
39. Aigars Vitolins Master - 1 1:21:41.766s + 0:01:38.945s
40. Ignacio Belatti Pro - 5 1:21:42.005s + 0:01:39.184s
41. Max Watson Retired 1:21:43.100s + 0:01:40.279s
42. Radek Czech2 Amateur - 64 1:21:44.641s + 0:01:41.820s
43. Chris Adnams Amateur - 6 1:21:48.204s + 0:01:45.383s
44. Florencia Caro Amateur - 58 1:21:50.635s + 0:01:47.814s
45. Paulo Pinto1 Pro - 8 1:21:52.494s + 0:01:49.673s
46. Gustavo Bellotto Master - 1 1:21:52.513s + 0:01:49.692s
47. Joel Viitikko Master - 3 1:21:54.961s + 0:01:52.140s
48. Jakab Zoltan Pro - 9 1:21:55.821s + 0:01:53.000s
49. Kamal Naoui Elite 1:21:56.242s + 0:01:53.421s
50. Michal Szopinski Amateur - 32 1:21:56.818s + 0:01:53.997s
51. Ilya Vedenikov Elite 1:21:59.740s + 0:01:56.919s
52. Artur Terezan Elite 1:21:59.865s + 0:01:57.044s
53. Branislav Mihic Master - 4 1:22:00.112s + 0:01:57.291s
54. Dmitry Shevel Elite 1:22:00.642s + 0:01:57.821s
55. Nuno Vicente Master - 3 1:22:01.583s + 0:01:58.762s
56. Pieterjan Staessen Elite 1:22:02.725s + 0:01:59.904s
57. Sergio Fanelli Master - 3 1:22:03.016s + 0:02:00.195s
58. Daniele Bontempo Amateur - 19 1:22:03.185s + 0:02:00.364s
59. Stefan Gommans Pro - 2 1:22:04.686s + 0:02:01.865s
60. Kai Wen Chew Elite 1:22:05.198s + 0:02:02.377s
61. Vladimir Islentiev2 Amateur - 61 1:22:06.173s + 0:02:03.352s
62. Andreas Ramann Master - 4 1:22:08.054s + 0:02:05.233s
63. Viktor Dyankov Master - 3 1:22:09.559s + 0:02:06.738s
64. Luca Molendi Master - 5 1:22:09.777s + 0:02:06.956s
65. Maxim Kotov2 Retired 1:22:10.092s + 0:02:07.271s
66. Simone Scarpa Elite 1:22:10.134s + 0:02:07.313s
67. Andrej Rilke Pro - 22 1:22:10.155s + 0:02:07.334s
68. Ahmet Sonverdi Master - 4 1:22:11.517s + 0:02:08.696s
69. Patryk Janczak Amateur - 69 1:22:11.593s + 0:02:08.772s
70. Ayman Daher Retired 1:22:11.600s + 0:02:08.779s
71. Ivan Silva Elite 1:22:11.989s + 0:02:09.168s
72. Apostolis Goutzos Master - 3 1:22:12.526s + 0:02:09.705s
73. Eduard Gindullin Amateur - 62 1:22:12.971s + 0:02:10.150s
74. Peter Both Master - 2 1:22:13.313s + 0:02:10.492s
75. Tan S Lake Elite 1:22:15.026s + 0:02:12.205s
76. Ville Pohjanen Amateur - 68 1:22:15.097s + 0:02:12.276s
77. Mika Pekkarinen Master - 5 1:22:15.100s + 0:02:12.279s
78. Pedro Moura Master - 1 1:22:15.534s + 0:02:12.713s
79. Juan Diego Milán Master - 2 1:22:16.278s + 0:02:13.457s
80. Gary Mullins Master - 2 1:22:17.068s + 0:02:14.247s
81. Krisztián Veinperl Amateur - 36 1:22:18.566s + 0:02:15.745s
82. Tomek Kiełpiński Pro - 9 1:22:19.614s + 0:02:16.793s
83. Marcin Żak Amateur - 49 1:22:19.890s + 0:02:17.069s
84. Pedro Nazaré Pro - 6 1:22:21.904s + 0:02:19.083s
85. Rogerio Mandler Master - 4 1:22:22.490s + 0:02:19.669s
86. Jens Frostrup Amateur - 25 1:22:22.552s + 0:02:19.731s
87. Tamás Végh Pro - 22 1:22:22.804s + 0:02:19.983s
88. Alessandro Casagrande Pro - 25 1:22:23.205s + 0:02:20.384s
89. Daniel Comalada Amateur - 58 1:22:23.718s + 0:02:20.897s
90. Alex Holland Amateur - 18 1:22:24.057s + 0:02:21.236s
91. Jani Syrjäläinen Retired 1:22:24.529s + 0:02:21.708s
92. Mikko Suhonen Master - 3 1:22:24.745s + 0:02:21.924s
93. Rafael Mantovani Pro - 7 1:22:25.555s + 0:02:22.734s
94. Josh Clark Elite 1:22:26.682s + 0:02:23.861s
95. Farcy Génel Pro - 8 1:22:27.450s + 0:02:24.629s
96. Dmitry Nechitailo Pro - 21 1:22:28.003s + 0:02:25.182s
97. András Bozóti Amateur - 27 1:22:29.463s + 0:02:26.642s
98. Mindaugas Bauža Amateur - 42 1:22:29.491s + 0:02:26.670s
99. Vladimir Jelicic Pro - 9 1:22:29.661s + 0:02:26.840s
100. Julien Prado Pro - 8 1:22:30.261s + 0:02:27.440s
Страница [12 3 ... 49 50 51 » Брзо оди на страница: